createdAt,value
2019-01-15T00:00:58.514Z,71.26
2019-01-15T00:07:04.807Z,71.55
2019-01-15T00:13:10.937Z,71.81
2019-01-15T00:19:16.664Z,71.84
2019-01-15T00:25:22.590Z,71.99
2019-01-15T00:31:28.378Z,72.03
2019-01-15T00:37:34.599Z,71.96
2019-01-15T00:43:40.315Z,71.87
2019-01-15T00:49:46.423Z,71.76
2019-01-15T00:55:52.143Z,71.90
2019-01-15T01:01:58.074Z,71.87
2019-01-15T01:08:04.224Z,71.91
2019-01-15T01:14:10.492Z,72.11
2019-01-15T01:20:21.624Z,72.16
2019-01-15T01:26:27.563Z,72.23
2019-01-15T01:32:33.509Z,72.29
2019-01-15T01:38:39.218Z,72.70
2019-01-15T01:44:45.020Z,72.64
2019-01-15T01:50:51.060Z,72.72
2019-01-15T01:56:56.804Z,72.77
2019-01-15T02:03:02.706Z,72.68
2019-01-15T02:09:10.481Z,72.60
2019-01-15T02:15:22.351Z,72.51
2019-01-15T02:21:28.387Z,72.49
2019-01-15T02:27:34.744Z,72.46
2019-01-15T02:33:40.481Z,72.51
2019-01-15T02:39:46.238Z,72.41
2019-01-15T02:45:52.097Z,72.38
2019-01-15T02:51:58.030Z,72.55
2019-01-15T02:58:03.956Z,72.75
2019-01-15T03:04:09.976Z,72.76
2019-01-15T03:10:17.847Z,72.69
2019-01-15T03:16:23.800Z,72.65
2019-01-15T03:22:29.560Z,72.85
2019-01-15T03:28:35.393Z,72.97
2019-01-15T03:34:41.111Z,73.10
2019-01-15T03:40:47.167Z,73.11
2019-01-15T03:46:53.017Z,73.26
2019-01-15T03:52:58.762Z,73.20
2019-01-15T03:59:05.265Z,73.18
2019-01-15T04:05:11.610Z,73.08
2019-01-15T04:11:17.334Z,73.09
2019-01-15T04:17:23.060Z,73.17
2019-01-15T04:23:29.001Z,73.37
2019-01-15T04:29:34.980Z,73.40
2019-01-15T04:35:40.810Z,73.73
2019-01-15T04:41:46.989Z,73.85
2019-01-15T04:47:53.414Z,74.18
2019-01-15T04:53:59.328Z,74.29
2019-01-15T05:00:07.002Z,74.66
2019-01-15T05:06:13.286Z,74.62
2019-01-15T05:12:19.131Z,74.66
2019-01-15T05:18:25.070Z,74.76
2019-01-15T05:24:30.858Z,74.82
2019-01-15T05:30:36.627Z,75.05
2019-01-15T05:36:42.382Z,75.23
2019-01-15T05:42:48.831Z,75.26
2019-01-15T05:48:54.583Z,75.19
2019-01-15T05:55:00.730Z,74.95
2019-01-15T06:01:07.074Z,74.86
2019-01-15T06:07:13.021Z,74.83
2019-01-15T06:13:19.000Z,74.74
2019-01-15T06:19:24.744Z,74.62
2019-01-15T06:25:30.708Z,74.49
2019-01-15T06:31:36.572Z,74.35
2019-01-15T06:37:42.360Z,74.27
2019-01-15T06:43:50.150Z,74.22
2019-01-15T06:49:57.521Z,74.20
2019-01-15T07:03:34.889Z,74.08
2019-01-15T07:09:52.534Z,74.00
2019-01-15T07:15:59.999Z,73.96
2019-01-15T07:22:06.130Z,73.80
2019-01-15T07:28:12.385Z,73.64
2019-01-15T07:34:18.487Z,73.58
2019-01-15T07:40:24.488Z,73.57
2019-01-15T07:46:30.355Z,73.58
2019-01-15T07:52:36.928Z,73.43
2019-01-15T07:58:42.721Z,73.24
2019-01-15T08:04:48.467Z,73.13
2019-01-15T08:10:57.169Z,73.06
2019-01-15T08:17:02.149Z,72.93
2019-01-15T08:23:16.899Z,72.85
2019-01-15T08:29:22.714Z,72.68
2019-01-15T08:35:28.519Z,72.60
2019-01-15T08:41:34.390Z,72.53
2019-01-15T08:47:46.686Z,72.39
2019-01-15T08:53:52.844Z,72.32
2019-01-15T08:59:58.553Z,72.26
2019-01-15T09:06:04.346Z,72.13
2019-01-15T09:12:10.409Z,71.97
2019-01-15T09:18:16.932Z,71.83
2019-01-15T09:24:23.899Z,71.78
2019-01-15T09:30:29.810Z,71.62
2019-01-15T09:36:35.809Z,71.25
2019-01-15T09:42:41.607Z,71.00
2019-01-15T09:48:47.786Z,70.82
2019-01-15T09:54:53.589Z,70.73
2019-01-15T10:00:59.396Z,70.63
2019-01-15T10:07:05.326Z,70.37
2019-01-15T10:13:11.155Z,69.83
2019-01-15T10:19:16.996Z,69.56
2019-01-15T10:25:28.167Z,69.05
2019-01-15T10:32:46.377Z,68.67
2019-01-15T10:38:52.210Z,68.32
2019-01-15T10:44:58.234Z,68.07
2019-01-15T10:51:04.052Z,67.71
2019-01-15T10:57:09.794Z,67.51
2019-01-15T11:03:15.608Z,67.19
2019-01-15T11:09:21.469Z,66.81
2019-01-15T11:15:27.482Z,66.69
2019-01-15T11:21:33.586Z,65.84
2019-01-15T11:27:40.288Z,65.59
2019-01-15T11:33:46.183Z,65.13
2019-01-15T11:39:52.321Z,64.58
2019-01-15T11:45:58.195Z,64.00
2019-01-15T11:52:04.130Z,63.61
2019-01-15T11:58:10.038Z,62.88
2019-01-15T12:04:43.280Z,62.50
2019-01-15T12:11:06.732Z,62.22
2019-01-15T12:17:32.094Z,61.90
2019-01-15T12:23:55.300Z,62.01
2019-01-15T12:30:29.214Z,62.23
2019-01-15T12:36:57.170Z,61.80
2019-01-15T12:43:37.017Z,61.53
2019-01-15T12:50:00.444Z,61.21
2019-01-15T12:56:37.491Z,60.62
2019-01-15T13:03:01.645Z,60.48
2019-01-15T13:09:43.988Z,60.44
2019-01-15T13:16:09.034Z,60.58
2019-01-15T13:22:32.245Z,60.66
2019-01-15T13:28:55.495Z,60.07
2019-01-15T13:35:18.918Z,60.12
2019-01-15T13:41:33.485Z,59.72
2019-01-15T13:47:56.868Z,60.28
2019-01-15T13:54:20.158Z,62.05
2019-01-15T14:00:47.488Z,63.48
2019-01-15T14:07:15.229Z,64.51
2019-01-15T14:13:46.089Z,64.77
2019-01-15T14:20:07.727Z,64.32
2019-01-15T14:26:47.216Z,64.43
2019-01-15T14:33:11.988Z,64.66
2019-01-15T14:39:46.514Z,64.65
2019-01-15T14:46:19.534Z,64.69
2019-01-15T14:52:53.528Z,64.76
2019-01-15T14:59:29.366Z,64.77
2019-01-15T15:05:59.711Z,64.52
2019-01-15T15:12:13.370Z,64.49
2019-01-15T15:18:37.778Z,64.32
2019-01-15T15:25:17.727Z,64.41
2019-01-15T15:32:01.691Z,64.41
2019-01-15T15:38:32.166Z,64.42
2019-01-15T15:44:59.794Z,64.21
2019-01-15T15:51:36.447Z,64.20
2019-01-15T15:58:18.945Z,64.34
2019-01-15T16:04:42.038Z,64.61
2019-01-15T16:11:18.605Z,64.69
2019-01-15T16:17:43.937Z,64.67
2019-01-15T16:24:11.664Z,64.65
2019-01-15T16:30:36.792Z,64.60
2019-01-15T16:37:00.001Z,64.59
2019-01-15T16:43:23.268Z,64.70
2019-01-15T16:49:46.344Z,64.76
2019-01-15T16:56:17.052Z,64.93
2019-01-15T17:02:41.756Z,65.09
2019-01-15T17:09:04.467Z,65.10
2019-01-15T17:15:30.807Z,65.13
2019-01-15T17:22:10.425Z,65.35
2019-01-15T17:28:46.969Z,65.45
2019-01-15T17:35:10.508Z,65.63
2019-01-15T17:41:41.844Z,65.75
2019-01-15T17:48:15.859Z,66.03
2019-01-15T17:54:49.435Z,66.10
2019-01-15T18:01:47.220Z,66.10
2019-01-15T18:07:44.876Z,66.12
2019-01-15T18:14:26.868Z,65.94
2019-01-15T18:21:18.424Z,65.87
2019-01-15T18:27:37.456Z,65.78
2019-01-15T18:34:00.849Z,65.65
2019-01-15T18:40:37.523Z,65.55
2019-01-15T18:47:01.458Z,65.55
2019-01-15T18:53:28.741Z,65.58
2019-01-15T18:59:52.171Z,65.54
2019-01-15T19:06:20.595Z,65.50
2019-01-15T19:12:43.143Z,65.42
2019-01-15T19:19:06.599Z,65.54
2019-01-15T19:25:49.589Z,65.40
2019-01-15T19:32:15.105Z,65.38
2019-01-15T19:38:49.566Z,65.39
2019-01-15T19:45:11.698Z,65.38
2019-01-15T19:51:42.568Z,65.40
2019-01-15T19:58:01.418Z,65.28
2019-01-15T20:04:26.609Z,65.21
2019-01-15T20:10:50.258Z,65.21
2019-01-15T20:17:18.528Z,65.22
2019-01-15T20:23:51.137Z,65.08
2019-01-15T20:30:15.056Z,64.95
2019-01-15T20:36:39.379Z,65.00
2019-01-15T20:43:02.202Z,64.96
2019-01-15T20:49:38.842Z,64.91
2019-01-15T20:56:18.617Z,64.86
2019-01-15T21:02:42.602Z,64.80
2019-01-15T21:09:02.804Z,64.84
2019-01-15T21:15:31.477Z,64.87
2019-01-15T21:21:55.027Z,64.99
2019-01-15T21:28:11.793Z,65.08
2019-01-15T21:34:36.455Z,65.25
2019-01-15T21:40:57.673Z,65.32
2019-01-15T21:47:40.219Z,65.37
2019-01-15T21:53:58.081Z,65.48
2019-01-15T22:00:31.414Z,65.66
2019-01-15T22:07:05.224Z,65.72
2019-01-15T22:13:28.434Z,65.84
2019-01-15T22:19:51.497Z,65.93
2019-01-15T22:26:16.190Z,66.05
2019-01-15T22:32:45.670Z,66.16
2019-01-15T22:39:17.013Z,66.20
2019-01-15T22:45:36.078Z,66.43
2019-01-15T22:51:59.771Z,66.53
2019-01-15T22:58:24.812Z,66.65
2019-01-15T23:04:45.185Z,66.82
2019-01-15T23:11:09.436Z,67.02
2019-01-15T23:17:31.172Z,67.10
2019-01-15T23:24:01.681Z,67.25
2019-01-15T23:30:34.390Z,67.36
2019-01-15T23:36:55.079Z,67.50
2019-01-15T23:43:19.824Z,67.48
2019-01-15T23:49:46.892Z,67.45
2019-01-15T23:56:10.255Z,67.51
